Terminal Aerodrome Forecast
Issued by NWS

Home | Current Version | Previous Version | Text Only | Print | Product List | Glossary On
Versions: 1 2 3 4 5 6 7 8 9 10 11 12 13 14 15 16 17
826
FTUS46 KLOX 192333
TAFLGB
TAF
KLGB 192333Z 2000/2024 30010KT P6SM SKC
     FM200500 VRB03KT P6SM OVC015
     FM201400 13005KT P6SM OVC020
     FM201800 18008KT P6SM FEW025=

USA.gov is the U.S. government's official web portal to all federal, state and local government web resources and services.